Terminal Aerodrome Forecast
Issued by NWS Grand Rapids, MI

Home | Current Version | Previous Version | Text Only | Print | Product List | Glossary On
Versions: 1 2 3 4 5 6 7 8 9 10 11 12 13
130
FTUS43 KGRR 211752 AAB
TAFGRR
TAF AMD
KGRR 211752Z 2118/2218 VRB05KT P6SM BKN030 BKN240
     FM211900 20008KT P6SM SCT035 BKN250
     FM220300 18008KT P6SM VCTS SCT050CB BKN120 BKN250 WS020/22035KT
     FM220700 18010KT 3SM TSRA BR SCT025 OVC040CB WS020/23040KT
     FM220800 15011KT 5SM -TSRA BR VCTS OVC035CB
     FM220900 24012KT 4SM -SHRA OVC025
     FM221400 25014G25KT P6SM OVC015
     FM221700 28018G28KT P6SM BKN050=

USA.gov is the U.S. government's official web portal to all federal, state and local government web resources and services.